createdAt,value
2017-10-03T00:00:29.837Z,58.70
2017-10-03T00:02:57.289Z,58.80
2017-10-03T00:05:24.756Z,58.90
2017-10-03T00:07:52.223Z,58.80
2017-10-03T00:10:19.680Z,58.80
2017-10-03T00:12:47.167Z,58.90
2017-10-03T00:15:14.609Z,58.90
2017-10-03T00:17:42.078Z,58.90
2017-10-03T00:20:09.530Z,58.80
2017-10-03T00:22:36.994Z,59.00
2017-10-03T00:25:04.460Z,58.80
2017-10-03T00:27:32.701Z,58.90
2017-10-03T00:30:00.149Z,58.80
2017-10-03T00:32:27.626Z,58.80
2017-10-03T00:34:55.073Z,58.80
2017-10-03T00:37:22.526Z,58.90
2017-10-03T00:39:50.003Z,58.90
2017-10-03T00:42:17.446Z,59.10
2017-10-03T00:44:44.908Z,59.00
2017-10-03T00:47:12.358Z,58.90
2017-10-03T00:49:39.826Z,58.90
2017-10-03T00:52:07.282Z,58.90
2017-10-03T00:54:35.512Z,58.90
2017-10-03T00:57:02.966Z,58.90
2017-10-03T00:59:30.438Z,58.80
2017-10-03T01:01:57.898Z,58.90
2017-10-03T01:04:25.361Z,58.90
2017-10-03T01:06:52.823Z,58.90
2017-10-03T01:09:20.282Z,58.70
2017-10-03T01:11:48.514Z,58.90
2017-10-03T01:14:16.798Z,58.80
2017-10-03T01:16:44.247Z,58.80
2017-10-03T01:19:11.705Z,58.90
2017-10-03T01:21:39.165Z,58.90
2017-10-03T01:24:06.650Z,58.80
2017-10-03T01:26:34.242Z,58.80
2017-10-03T01:29:01.697Z,58.80
2017-10-03T01:31:29.171Z,58.80
2017-10-03T01:33:57.413Z,58.80
2017-10-03T01:36:24.881Z,58.80
2017-10-03T01:38:52.326Z,58.80
2017-10-03T01:41:19.785Z,58.90
2017-10-03T01:43:47.253Z,58.80
2017-10-03T01:46:14.710Z,58.90
2017-10-03T01:48:42.160Z,58.80
2017-10-03T01:51:09.626Z,58.80
2017-10-03T01:53:37.082Z,58.90
2017-10-03T01:56:04.562Z,58.80
2017-10-03T01:58:32.030Z,58.80
2017-10-03T02:01:00.274Z,58.80
2017-10-03T02:03:27.720Z,58.80
2017-10-03T02:05:55.202Z,58.80
2017-10-03T02:08:22.669Z,58.80
2017-10-03T02:10:50.129Z,58.80
2017-10-03T02:13:17.586Z,58.90
2017-10-03T02:15:45.040Z,58.80
2017-10-03T02:18:12.502Z,58.80
2017-10-03T02:20:40.738Z,58.80
2017-10-03T02:23:08.203Z,58.80
2017-10-03T02:25:35.657Z,58.80
2017-10-03T02:28:03.877Z,58.80
2017-10-03T02:30:32.099Z,58.80
2017-10-03T02:32:59.562Z,58.70
2017-10-03T02:35:27.010Z,58.80
2017-10-03T02:37:54.466Z,58.90
2017-10-03T02:40:21.913Z,59.50
2017-10-03T02:42:49.377Z,58.80
2017-10-03T02:45:16.829Z,58.80
2017-10-03T02:47:44.297Z,58.80
2017-10-03T02:50:11.758Z,58.80
2017-10-03T02:52:39.206Z,58.80
2017-10-03T02:55:07.443Z,59.40
2017-10-03T02:57:35.653Z,58.80
2017-10-03T03:00:03.114Z,58.80
2017-10-03T03:02:31.334Z,58.80
2017-10-03T03:04:58.789Z,58.80
2017-10-03T03:07:26.237Z,58.80
2017-10-03T03:09:53.696Z,58.80
2017-10-03T03:12:21.154Z,58.70
2017-10-03T03:14:48.612Z,58.70
2017-10-03T03:17:17.572Z,58.80
2017-10-03T03:19:45.039Z,58.80
2017-10-03T03:22:12.511Z,59.40
2017-10-03T03:24:39.949Z,58.80
2017-10-03T03:27:07.414Z,58.90
2017-10-03T03:29:34.881Z,58.80
2017-10-03T03:32:02.346Z,58.70
2017-10-03T03:34:29.814Z,58.70
2017-10-03T03:36:57.276Z,58.60
2017-10-03T03:39:24.749Z,58.70
2017-10-03T03:41:52.204Z,58.80
2017-10-03T03:44:19.664Z,58.70
2017-10-03T03:46:47.890Z,58.80
2017-10-03T03:49:15.341Z,58.80
2017-10-03T03:51:42.803Z,58.80
2017-10-03T03:54:10.258Z,58.80
2017-10-03T03:56:37.725Z,58.80
2017-10-03T03:59:05.179Z,58.80
2017-10-03T04:01:32.637Z,58.90
2017-10-03T04:04:00.095Z,58.90
2017-10-03T04:06:27.570Z,58.80
2017-10-03T04:08:55.025Z,58.70
2017-10-03T04:11:22.482Z,58.70
2017-10-03T04:13:49.933Z,58.80
2017-10-03T04:16:17.406Z,58.80
2017-10-03T04:18:44.854Z,58.70
2017-10-03T04:21:12.322Z,58.70
2017-10-03T04:23:39.792Z,58.60
2017-10-03T04:26:07.303Z,58.60
2017-10-03T04:28:34.757Z,58.70
2017-10-03T04:31:02.223Z,58.70
2017-10-03T04:33:29.697Z,58.80
2017-10-03T04:35:57.177Z,58.70
2017-10-03T04:38:25.409Z,58.70
2017-10-03T04:40:52.896Z,59.20
2017-10-03T04:43:20.389Z,58.60
2017-10-03T04:45:48.602Z,58.70
2017-10-03T04:48:16.089Z,58.60
2017-10-03T04:50:45.054Z,58.70
2017-10-03T04:53:13.277Z,58.70
2017-10-03T04:55:40.726Z,58.60
2017-10-03T04:58:08.189Z,58.70
2017-10-03T05:00:35.660Z,58.70
2017-10-03T05:03:03.143Z,58.70
2017-10-03T05:05:30.614Z,58.70
2017-10-03T05:07:58.088Z,58.60
2017-10-03T05:10:25.558Z,58.60
2017-10-03T05:12:53.016Z,58.60
2017-10-03T05:15:20.479Z,58.70
2017-10-03T05:17:47.950Z,58.60
2017-10-03T05:20:16.203Z,58.70
2017-10-03T05:22:43.643Z,58.60
2017-10-03T05:25:11.125Z,58.70
2017-10-03T05:27:38.578Z,58.60
2017-10-03T05:30:06.042Z,58.80
2017-10-03T05:32:33.499Z,58.70
2017-10-03T05:35:01.053Z,58.70
2017-10-03T05:37:28.512Z,58.70
2017-10-03T05:39:56.014Z,58.70
2017-10-03T05:42:23.453Z,58.80
2017-10-03T05:44:50.909Z,58.70
2017-10-03T05:47:18.359Z,58.70
2017-10-03T05:49:46.602Z,58.70
2017-10-03T05:52:14.062Z,58.60
2017-10-03T05:54:41.509Z,58.70
2017-10-03T05:57:08.991Z,58.70
2017-10-03T05:59:36.442Z,58.60
2017-10-03T06:02:03.903Z,58.60
2017-10-03T06:04:31.349Z,58.50
2017-10-03T06:06:59.570Z,58.50
2017-10-03T06:09:27.009Z,58.50
2017-10-03T06:11:55.233Z,58.60
2017-10-03T06:14:22.682Z,58.50
2017-10-03T06:16:50.149Z,58.70
2017-10-03T06:19:17.599Z,58.60
2017-10-03T06:21:45.825Z,58.50
2017-10-03T06:24:14.054Z,58.50
2017-10-03T06:26:41.510Z,58.50
2017-10-03T06:29:08.969Z,58.50
2017-10-03T06:31:36.426Z,58.40
2017-10-03T06:34:03.899Z,58.40
2017-10-03T06:36:31.356Z,58.40
2017-10-03T06:38:58.806Z,58.40
2017-10-03T06:41:26.366Z,58.30
2017-10-03T06:43:53.822Z,58.40
2017-10-03T06:46:21.309Z,58.30
2017-10-03T06:48:48.769Z,57.90
2017-10-03T06:51:16.281Z,58.00
2017-10-03T06:53:43.730Z,57.80
2017-10-03T06:56:11.197Z,57.70
2017-10-03T06:58:38.674Z,57.80
2017-10-03T07:01:06.133Z,57.70
2017-10-03T07:03:33.593Z,57.60
2017-10-03T07:06:01.041Z,57.70
2017-10-03T07:08:28.500Z,57.70
2017-10-03T07:10:55.949Z,57.50
2017-10-03T07:13:23.467Z,57.50
2017-10-03T07:15:51.690Z,57.70
2017-10-03T07:18:19.148Z,57.70
2017-10-03T07:20:46.591Z,57.60
2017-10-03T07:23:14.057Z,57.50
2017-10-03T07:25:41.516Z,57.50
2017-10-03T07:28:08.986Z,57.50
2017-10-03T07:30:36.449Z,57.50
2017-10-03T07:33:03.905Z,57.50
2017-10-03T07:35:31.370Z,57.50
2017-10-03T07:37:58.843Z,57.60
2017-10-03T07:40:27.061Z,57.00
2017-10-03T07:42:55.310Z,57.00
2017-10-03T07:45:22.757Z,56.90
2017-10-03T07:47:50.982Z,57.00
2017-10-03T07:50:18.441Z,57.00
2017-10-03T07:52:45.884Z,56.80
2017-10-03T07:55:13.340Z,56.60
2017-10-03T07:57:40.794Z,56.70
2017-10-03T08:00:08.255Z,56.70
2017-10-03T08:02:35.715Z,56.80
2017-10-03T08:05:03.182Z,57.20
2017-10-03T08:07:30.635Z,56.40
2017-10-03T08:09:58.109Z,56.00
2017-10-03T08:12:25.566Z,55.40
2017-10-03T08:14:53.017Z,55.00
2017-10-03T08:17:20.457Z,54.10
2017-10-03T08:19:47.917Z,53.40
2017-10-03T08:22:16.150Z,52.00
2017-10-03T08:24:44.393Z,51.50
2017-10-03T08:27:12.614Z,51.00
2017-10-03T08:29:40.066Z,50.90
2017-10-03T08:32:08.282Z,50.80
2017-10-03T08:34:35.729Z,50.70
2017-10-03T08:37:03.199Z,50.70
2017-10-03T08:39:30.642Z,50.50
2017-10-03T08:41:58.098Z,49.90
2017-10-03T08:44:25.559Z,49.40
2017-10-03T08:46:53.017Z,49.00
2017-10-03T08:49:20.458Z,48.60
2017-10-03T08:51:47.906Z,48.10
2017-10-03T08:54:15.366Z,47.80
2017-10-03T08:56:42.817Z,47.30
2017-10-03T08:59:11.027Z,46.70
2017-10-03T09:01:38.473Z,46.60
2017-10-03T09:04:05.934Z,46.40
2017-10-03T09:06:33.381Z,46.90
2017-10-03T09:09:00.871Z,47.10
2017-10-03T09:11:28.356Z,46.60
2017-10-03T09:13:56.575Z,45.40
2017-10-03T09:16:24.034Z,45.40
2017-10-03T09:18:51.495Z,45.90
2017-10-03T09:21:18.946Z,46.60
2017-10-03T09:23:46.390Z,47.80
2017-10-03T09:26:13.917Z,47.60
2017-10-03T09:28:42.141Z,48.00
2017-10-03T09:31:09.606Z,47.90
2017-10-03T09:33:37.053Z,48.10
2017-10-03T09:36:04.509Z,48.40
2017-10-03T09:38:31.990Z,48.50
2017-10-03T09:40:59.473Z,48.80
2017-10-03T09:43:26.971Z,48.20
2017-10-03T09:45:54.417Z,47.10
2017-10-03T09:48:21.873Z,46.20
2017-10-03T09:50:49.330Z,45.60
2017-10-03T09:53:16.777Z,45.20
2017-10-03T09:55:44.990Z,45.20
2017-10-03T09:58:13.218Z,45.40
2017-10-03T10:00:41.432Z,45.40
2017-10-03T10:03:08.881Z,45.10
2017-10-03T10:05:37.095Z,45.30
2017-10-03T10:08:04.570Z,45.30
2017-10-03T10:10:32.024Z,45.40
2017-10-03T10:12:59.497Z,45.90
2017-10-03T10:15:26.978Z,46.10
2017-10-03T10:17:54.443Z,46.90
2017-10-03T10:20:21.894Z,47.70
2017-10-03T10:22:50.129Z,47.70
2017-10-03T10:25:17.590Z,47.70
2017-10-03T10:27:45.043Z,47.20
2017-10-03T10:30:12.512Z,46.20
2017-10-03T10:32:39.966Z,46.50
2017-10-03T10:35:07.423Z,47.60
2017-10-03T10:37:34.873Z,48.30
2017-10-03T10:40:02.339Z,48.90
2017-10-03T10:42:30.622Z,48.50
2017-10-03T10:44:58.852Z,47.90
2017-10-03T10:47:26.301Z,47.90
2017-10-03T10:49:53.746Z,46.70
2017-10-03T10:52:21.190Z,45.60
2017-10-03T10:54:48.658Z,44.30
2017-10-03T10:57:16.125Z,46.40
2017-10-03T10:59:43.592Z,46.70
2017-10-03T11:02:11.053Z,46.80
2017-10-03T11:04:38.518Z,46.80
2017-10-03T11:07:05.973Z,46.60
2017-10-03T11:09:33.426Z,46.70
2017-10-03T11:12:00.885Z,46.80
2017-10-03T11:14:28.346Z,47.50
2017-10-03T11:16:55.800Z,48.70
2017-10-03T11:19:23.258Z,50.10
2017-10-03T11:21:50.725Z,50.80
2017-10-03T11:24:29.775Z,51.50
2017-10-03T11:26:57.245Z,51.90
2017-10-03T11:29:25.465Z,51.40
2017-10-03T11:31:52.949Z,51.30
2017-10-03T11:34:20.420Z,50.80
2017-10-03T11:36:47.882Z,51.00
2017-10-03T11:39:15.341Z,51.50
2017-10-03T11:41:42.805Z,52.00
2017-10-03T11:44:11.029Z,52.80
2017-10-03T11:46:38.506Z,52.80
2017-10-03T11:49:05.961Z,53.30
2017-10-03T11:51:33.433Z,53.40
2017-10-03T11:54:00.913Z,53.50
2017-10-03T11:56:28.362Z,52.30
2017-10-03T11:58:55.805Z,50.90
2017-10-03T12:01:23.286Z,50.30
2017-10-03T12:03:51.504Z,47.80
2017-10-03T12:06:18.962Z,47.80
2017-10-03T12:08:46.529Z,46.60
2017-10-03T12:11:13.999Z,45.30
2017-10-03T12:13:41.473Z,44.20
2017-10-03T12:16:08.924Z,43.60
2017-10-03T12:18:36.398Z,43.00
2017-10-03T12:21:03.844Z,42.70
2017-10-03T12:23:31.306Z,42.30
2017-10-03T12:25:58.758Z,42.10
2017-10-03T12:28:26.213Z,42.00
2017-10-03T12:30:53.678Z,43.40
2017-10-03T12:33:21.245Z,44.80
2017-10-03T12:35:49.486Z,46.10
2017-10-03T12:38:16.933Z,46.10
2017-10-03T12:40:44.409Z,46.60
2017-10-03T12:43:11.860Z,46.10
2017-10-03T12:45:39.326Z,44.50
2017-10-03T12:48:06.989Z,43.60
2017-10-03T12:50:35.293Z,42.90
2017-10-03T12:53:02.801Z,42.80
2017-10-03T12:55:30.270Z,42.60
2017-10-03T12:57:57.751Z,42.50
2017-10-03T13:00:25.206Z,43.30
2017-10-03T13:02:52.649Z,44.40
2017-10-03T13:05:20.114Z,44.20
2017-10-03T13:07:47.577Z,44.10
2017-10-03T13:10:15.025Z,43.60
2017-10-03T13:12:42.474Z,44.00
2017-10-03T13:15:09.932Z,44.60
2017-10-03T13:17:37.402Z,44.20
2017-10-03T13:20:04.896Z,44.10
2017-10-03T13:22:33.141Z,44.80
2017-10-03T13:25:00.635Z,44.80
2017-10-03T13:27:28.873Z,45.90
2017-10-03T13:29:56.365Z,45.90
2017-10-03T13:32:24.584Z,46.40
2017-10-03T13:34:52.046Z,46.40
2017-10-03T13:37:19.500Z,46.80
2017-10-03T13:39:46.949Z,47.50
2017-10-03T13:42:14.409Z,48.30
2017-10-03T13:44:41.874Z,48.60
2017-10-03T13:47:09.335Z,47.90
2017-10-03T13:49:36.892Z,47.20
2017-10-03T13:52:04.337Z,46.40
2017-10-03T13:54:31.831Z,45.80
2017-10-03T13:56:59.283Z,45.20
2017-10-03T13:59:26.738Z,45.00
2017-10-03T14:01:54.198Z,45.10
2017-10-03T14:04:21.654Z,46.40
2017-10-03T14:06:49.114Z,48.50
2017-10-03T14:09:16.568Z,48.80
2017-10-03T14:11:44.033Z,49.60
2017-10-03T14:14:11.487Z,50.00
2017-10-03T14:16:38.943Z,50.50
2017-10-03T14:19:06.391Z,50.80
2017-10-03T14:21:33.850Z,51.40
2017-10-03T14:24:01.308Z,51.70
2017-10-03T14:26:28.770Z,51.90
2017-10-03T14:28:56.234Z,51.80
2017-10-03T14:31:23.703Z,51.80
2017-10-03T14:33:51.945Z,49.40
2017-10-03T14:36:19.401Z,49.40
2017-10-03T14:38:46.853Z,48.40
2017-10-03T14:41:14.352Z,48.30
2017-10-03T14:43:41.802Z,48.50
2017-10-03T14:46:09.269Z,48.90
2017-10-03T14:48:37.485Z,49.00
2017-10-03T14:51:04.941Z,49.00
2017-10-03T14:53:32.409Z,49.30
2017-10-03T14:55:59.857Z,50.10
2017-10-03T14:58:27.318Z,50.60
2017-10-03T15:00:54.769Z,50.60
2017-10-03T15:03:22.217Z,51.00
2017-10-03T15:05:49.672Z,51.40
2017-10-03T15:08:17.129Z,51.60
2017-10-03T15:10:45.481Z,51.70
2017-10-03T15:13:13.706Z,51.70
2017-10-03T15:15:41.161Z,51.70
2017-10-03T15:18:08.618Z,51.60
2017-10-03T15:20:36.078Z,51.30
2017-10-03T15:23:03.570Z,51.10
2017-10-03T15:25:31.010Z,51.10
2017-10-03T15:27:58.462Z,51.40
2017-10-03T15:30:25.917Z,52.20
2017-10-03T15:32:53.377Z,51.10
2017-10-03T15:35:20.834Z,51.00
2017-10-03T15:37:48.293Z,50.80
2017-10-03T15:40:15.772Z,50.90
2017-10-03T15:42:43.217Z,50.50
2017-10-03T15:45:10.677Z,49.50
2017-10-03T15:47:38.133Z,48.40
2017-10-03T15:50:05.596Z,47.80
2017-10-03T15:52:33.054Z,47.70
2017-10-03T15:55:00.510Z,48.20
2017-10-03T15:57:28.729Z,49.20
2017-10-03T15:59:56.957Z,49.20
2017-10-03T16:02:24.410Z,49.20
2017-10-03T16:04:52.095Z,49.10
2017-10-03T16:07:19.541Z,50.40
2017-10-03T16:09:47.001Z,51.60
2017-10-03T16:12:14.453Z,51.40
2017-10-03T16:14:41.914Z,51.80
2017-10-03T16:17:10.139Z,53.30
2017-10-03T16:19:38.405Z,54.10
2017-10-03T16:22:06.658Z,54.60
2017-10-03T16:24:34.913Z,55.10
2017-10-03T16:27:02.370Z,55.10
2017-10-03T16:29:29.814Z,55.40
2017-10-03T16:31:57.285Z,55.70
2017-10-03T16:34:24.732Z,55.70
2017-10-03T16:36:52.182Z,55.80
2017-10-03T16:39:19.638Z,55.60
2017-10-03T16:41:47.110Z,55.80
2017-10-03T16:44:14.557Z,55.90
2017-10-03T16:46:42.778Z,56.10
2017-10-03T16:49:11.000Z,56.20
2017-10-03T16:51:38.471Z,56.20
2017-10-03T16:54:05.940Z,56.20
2017-10-03T16:56:33.399Z,56.20
2017-10-03T16:59:00.853Z,56.40
2017-10-03T17:01:28.314Z,56.40
2017-10-03T17:03:55.763Z,56.40
2017-10-03T17:06:23.221Z,56.40
2017-10-03T17:08:50.673Z,56.50
2017-10-03T17:11:18.133Z,56.50
2017-10-03T17:13:45.593Z,53.80
2017-10-03T17:16:13.037Z,50.50
2017-10-03T17:18:40.494Z,49.00
2017-10-03T17:21:07.966Z,49.00
2017-10-03T17:23:35.445Z,48.70
2017-10-03T17:26:02.889Z,48.90
2017-10-03T17:28:30.346Z,48.80
2017-10-03T17:30:57.818Z,49.00
2017-10-03T17:33:25.274Z,49.10
2017-10-03T17:35:52.742Z,49.70
2017-10-03T17:38:20.275Z,50.10
2017-10-03T17:40:47.778Z,50.20
2017-10-03T17:43:15.251Z,50.50
2017-10-03T17:45:42.722Z,50.40
2017-10-03T17:51:02.909Z,51.10
2017-10-03T17:53:30.390Z,51.20
2017-10-03T17:55:57.965Z,50.60
2017-10-03T17:58:25.438Z,51.00
2017-10-03T18:00:52.914Z,51.00
2017-10-03T18:03:20.378Z,51.20
2017-10-03T18:05:47.833Z,51.90
2017-10-03T18:08:16.098Z,51.70
2017-10-03T18:10:44.330Z,51.80
2017-10-03T18:13:11.786Z,51.80
2017-10-03T18:15:39.281Z,51.90
2017-10-03T18:18:06.734Z,52.10
2017-10-03T18:20:34.194Z,52.50
2017-10-03T18:23:01.666Z,52.50
2017-10-03T18:25:29.145Z,52.80
2017-10-03T18:27:57.509Z,53.00
2017-10-03T18:30:26.677Z,52.90
2017-10-03T18:32:54.172Z,52.80
2017-10-03T18:35:21.713Z,53.10
2017-10-03T18:37:49.963Z,54.20
2017-10-03T18:40:18.171Z,53.80
2017-10-03T18:42:45.648Z,53.80
2017-10-03T18:45:13.102Z,53.70
2017-10-03T18:47:40.553Z,53.60
2017-10-03T18:50:08.793Z,54.10
2017-10-03T18:52:36.254Z,54.20
2017-10-03T18:55:04.491Z,54.80
2017-10-03T18:57:31.953Z,54.10
2017-10-03T18:59:59.446Z,54.30
2017-10-03T19:02:28.402Z,54.00
2017-10-03T19:04:55.869Z,53.90
2017-10-03T19:07:23.314Z,54.10
2017-10-03T19:09:51.553Z,54.20
2017-10-03T19:12:18.998Z,54.20
2017-10-03T19:14:46.445Z,54.10
2017-10-03T19:17:13.910Z,54.30
2017-10-03T19:19:42.142Z,54.10
2017-10-03T19:22:09.601Z,54.10
2017-10-03T19:24:37.049Z,54.50
2017-10-03T19:27:05.298Z,54.60
2017-10-03T19:29:33.529Z,54.90
2017-10-03T19:32:01.001Z,55.00
2017-10-03T19:34:28.482Z,55.00
2017-10-03T19:36:56.717Z,55.10
2017-10-03T19:39:24.173Z,55.00
2017-10-03T19:41:51.774Z,55.40
2017-10-03T19:44:19.238Z,55.40
2017-10-03T19:46:47.505Z,55.40
2017-10-03T19:49:15.959Z,55.70
2017-10-03T19:51:43.433Z,55.70
2017-10-03T19:54:10.889Z,55.70
2017-10-03T19:56:38.354Z,55.80
2017-10-03T19:59:06.585Z,56.10
2017-10-03T20:01:34.059Z,55.80
2017-10-03T20:04:01.542Z,56.20
2017-10-03T20:06:29.005Z,56.10
2017-10-03T20:08:56.531Z,56.00
2017-10-03T20:11:23.991Z,56.20
2017-10-03T20:13:51.478Z,56.30
2017-10-03T20:16:19.703Z,56.10
2017-10-03T20:18:47.178Z,56.10
2017-10-03T20:21:14.670Z,56.20
2017-10-03T20:23:42.982Z,56.40
2017-10-03T20:26:10.413Z,56.20
2017-10-03T20:28:38.652Z,56.60
2017-10-03T20:31:06.239Z,57.00
2017-10-03T20:33:33.745Z,56.50
2017-10-03T20:36:01.253Z,56.60
2017-10-03T20:38:29.485Z,56.20
2017-10-03T20:40:56.941Z,56.20
2017-10-03T20:43:24.418Z,56.30
2017-10-03T20:45:51.900Z,56.60
2017-10-03T20:48:19.342Z,56.60
2017-10-03T20:50:46.817Z,56.40
2017-10-03T20:53:14.300Z,56.60
2017-10-03T20:55:42.577Z,56.70
2017-10-03T20:58:10.025Z,56.70
2017-10-03T21:00:37.489Z,56.80
2017-10-03T21:03:05.059Z,56.70
2017-10-03T21:05:32.610Z,57.10
2017-10-03T21:08:00.833Z,56.60
2017-10-03T21:10:28.297Z,56.50
2017-10-03T21:12:55.765Z,56.90
2017-10-03T21:15:23.222Z,57.20
2017-10-03T21:17:50.669Z,57.60
2017-10-03T21:20:18.150Z,57.50
2017-10-03T21:22:46.445Z,57.30
2017-10-03T21:25:14.990Z,57.30
2017-10-03T21:27:42.495Z,57.50
2017-10-03T21:30:10.853Z,57.60
2017-10-03T21:32:40.350Z,58.10
2017-10-03T21:35:08.558Z,57.20
2017-10-03T21:37:36.034Z,57.20
2017-10-03T21:40:03.478Z,57.40
2017-10-03T21:42:42.692Z,57.30
2017-10-03T21:45:10.152Z,56.50
2017-10-03T21:47:37.610Z,56.60
2017-10-03T21:50:05.850Z,57.10
2017-10-03T21:52:33.305Z,57.10
2017-10-03T21:55:00.772Z,57.60
2017-10-03T21:57:29.742Z,57.20
2017-10-03T21:59:57.202Z,57.20
2017-10-03T22:02:24.675Z,57.20
2017-10-03T22:04:52.898Z,57.20
2017-10-03T22:07:21.131Z,57.60
2017-10-03T22:09:48.599Z,57.50
2017-10-03T22:12:16.849Z,57.80
2017-10-03T22:14:44.321Z,57.80
2017-10-03T22:17:11.769Z,58.10
2017-10-03T22:19:39.257Z,58.30
2017-10-03T22:22:07.521Z,58.50
2017-10-03T22:24:35.768Z,58.40
2017-10-03T22:27:03.210Z,58.40
2017-10-03T22:29:32.592Z,58.30
2017-10-03T22:32:00.035Z,58.10
2017-10-03T22:34:27.575Z,58.10
2017-10-03T22:36:55.090Z,58.10
2017-10-03T22:39:22.658Z,58.20
2017-10-03T22:41:50.142Z,58.40
2017-10-03T22:44:17.601Z,58.50
2017-10-03T22:46:45.049Z,58.40
2017-10-03T22:49:12.512Z,58.30
2017-10-03T22:51:45.709Z,58.40
2017-10-03T22:54:13.153Z,58.10
2017-10-03T22:56:42.114Z,58.20
2017-10-03T22:59:09.618Z,58.10
2017-10-03T23:01:37.102Z,58.50
2017-10-03T23:04:05.345Z,58.30
2017-10-03T23:06:32.809Z,58.30
2017-10-03T23:09:01.085Z,58.20
2017-10-03T23:11:28.538Z,58.20
2017-10-03T23:13:56.016Z,58.10
2017-10-03T23:16:24.262Z,58.20
2017-10-03T23:18:51.749Z,58.20
2017-10-03T23:21:19.974Z,58.20
2017-10-03T23:23:47.429Z,58.20
2017-10-03T23:26:14.909Z,57.90
2017-10-03T23:28:42.366Z,58.00
2017-10-03T23:31:09.830Z,58.00
2017-10-03T23:33:37.282Z,58.00
2017-10-03T23:36:04.741Z,57.90
2017-10-03T23:38:32.208Z,58.10
2017-10-03T23:41:03.422Z,58.40
2017-10-03T23:43:30.906Z,58.80
2017-10-03T23:45:58.377Z,59.30
2017-10-03T23:48:25.837Z,59.20
2017-10-03T23:50:53.307Z,59.00
2017-10-03T23:53:21.509Z,59.90
2017-10-03T23:55:48.985Z,59.30
2017-10-03T23:58:16.424Z,59.10
